sensor_id;sensor_type;location;lat;lon;timestamp;P1;durP1;ratioP1;P2;durP2;ratioP2
55216;SDS011;41086;46.736;15.666;2022-11-15T00:00:10;320.65;;;64.47;;
55216;SDS011;41086;46.736;15.666;2022-11-15T00:02:55;285.80;;;61.72;;
55216;SDS011;41086;46.736;15.666;2022-11-15T00:05:41;340.30;;;65.97;;
55216;SDS011;41086;46.736;15.666;2022-11-15T00:08:28;287.00;;;62.20;;
55216;SDS011;41086;46.736;15.666;2022-11-15T00:11:15;300.67;;;62.15;;
55216;SDS011;41086;46.736;15.666;2022-11-15T00:14:01;331.77;;;63.75;;
55216;SDS011;41086;46.736;15.666;2022-11-15T00:16:48;318.17;;;64.22;;
55216;SDS011;41086;46.736;15.666;2022-11-15T00:19:33;369.88;;;72.50;;
55216;SDS011;41086;46.736;15.666;2022-11-15T00:22:19;292.45;;;65.47;;
55216;SDS011;41086;46.736;15.666;2022-11-15T00:25:05;256.48;;;60.47;;
55216;SDS011;41086;46.736;15.666;2022-11-15T00:27:50;327.88;;;69.90;;
55216;SDS011;41086;46.736;15.666;2022-11-15T00:30:39;264.45;;;61.47;;
55216;SDS011;41086;46.736;15.666;2022-11-15T00:33:24;267.13;;;61.35;;
55216;SDS011;41086;46.736;15.666;2022-11-15T00:36:09;358.45;;;66.47;;
55216;SDS011;41086;46.736;15.666;2022-11-15T00:38:55;284.45;;;63.53;;
55216;SDS011;41086;46.736;15.666;2022-11-15T00:41:40;348.92;;;66.22;;
55216;SDS011;41086;46.736;15.666;2022-11-15T00:44:26;408.02;;;73.03;;
55216;SDS011;41086;46.736;15.666;2022-11-15T00:47:12;247.10;;;59.92;;
55216;SDS011;41086;46.736;15.666;2022-11-15T00:49:58;365.05;;;70.32;;
55216;SDS011;41086;46.736;15.666;2022-11-15T00:52:43;333.20;;;66.38;;
55216;SDS011;41086;46.736;15.666;2022-11-15T00:55:29;592.72;;;91.15;;
55216;SDS011;41086;46.736;15.666;2022-11-15T00:58:14;515.53;;;82.18;;
55216;SDS011;41086;46.736;15.666;2022-11-15T01:01:09;437.25;;;73.47;;
55216;SDS011;41086;46.736;15.666;2022-11-15T01:03:56;714.15;;;97.38;;
55216;SDS011;41086;46.736;15.666;2022-11-15T01:06:45;571.97;;;86.15;;
55216;SDS011;41086;46.736;15.666;2022-11-15T01:09:31;490.88;;;76.57;;
55216;SDS011;41086;46.736;15.666;2022-11-15T01:12:16;458.48;;;74.43;;
55216;SDS011;41086;46.736;15.666;2022-11-15T01:15:01;323.75;;;64.88;;
55216;SDS011;41086;46.736;15.666;2022-11-15T01:17:47;559.85;;;84.38;;
55216;SDS011;41086;46.736;15.666;2022-11-15T01:20:33;405.60;;;66.22;;
55216;SDS011;41086;46.736;15.666;2022-11-15T01:23:18;756.45;;;98.60;;
55216;SDS011;41086;46.736;15.666;2022-11-15T01:26:04;724.50;;;94.65;;
55216;SDS011;41086;46.736;15.666;2022-11-15T01:28:51;450.30;;;74.93;;
55216;SDS011;41086;46.736;15.666;2022-11-15T01:31:37;309.48;;;57.45;;
55216;SDS011;41086;46.736;15.666;2022-11-15T01:34:22;344.38;;;65.00;;
55216;SDS011;41086;46.736;15.666;2022-11-15T01:37:08;399.88;;;68.78;;
55216;SDS011;41086;46.736;15.666;2022-11-15T01:39:53;423.23;;;70.03;;
55216;SDS011;41086;46.736;15.666;2022-11-15T01:42:38;398.05;;;65.00;;
55216;SDS011;41086;46.736;15.666;2022-11-15T01:45:24;412.42;;;67.95;;
55216;SDS011;41086;46.736;15.666;2022-11-15T01:48:09;362.88;;;64.53;;
55216;SDS011;41086;46.736;15.666;2022-11-15T01:50:56;452.23;;;71.93;;
55216;SDS011;41086;46.736;15.666;2022-11-15T01:53:42;531.50;;;76.53;;
55216;SDS011;41086;46.736;15.666;2022-11-15T01:56:32;395.08;;;67.32;;
55216;SDS011;41086;46.736;15.666;2022-11-15T01:59:21;403.67;;;64.97;;
55216;SDS011;41086;46.736;15.666;2022-11-15T02:02:08;360.88;;;67.68;;
55216;SDS011;41086;46.736;15.666;2022-11-15T02:04:53;573.30;;;81.72;;
55216;SDS011;41086;46.736;15.666;2022-11-15T02:07:39;513.03;;;74.57;;
55216;SDS011;41086;46.736;15.666;2022-11-15T02:10:25;530.22;;;78.40;;
55216;SDS011;41086;46.736;15.666;2022-11-15T02:13:10;523.70;;;75.57;;
55216;SDS011;41086;46.736;15.666;2022-11-15T02:15:58;719.63;;;99.63;;
55216;SDS011;41086;46.736;15.666;2022-11-15T02:32:15;732.63;;;100.57;;
55216;SDS011;41086;46.736;15.666;2022-11-15T02:37:57;402.92;;;63.78;;
55216;SDS011;41086;46.736;15.666;2022-11-15T02:44:07;523.10;;;71.95;;
55216;SDS011;41086;46.736;15.666;2022-11-15T02:47:02;772.15;;;102.22;;
55216;SDS011;41086;46.736;15.666;2022-11-15T02:50:07;560.83;;;83.15;;
55216;SDS011;41086;46.736;15.666;2022-11-15T02:52:55;471.20;;;68.30;;
55216;SDS011;41086;46.736;15.666;2022-11-15T02:55:41;449.75;;;69.32;;
55216;SDS011;41086;46.736;15.666;2022-11-15T03:07:27;462.45;;;73.85;;
55216;SDS011;41086;46.736;15.666;2022-11-15T03:10:20;491.40;;;70.68;;
55216;SDS011;41086;46.736;15.666;2022-11-15T03:22:28;460.15;;;68.60;;
55216;SDS011;41086;46.736;15.666;2022-11-15T03:25:19;345.30;;;58.35;;
55216;SDS011;41086;46.736;15.666;2022-11-15T03:28:08;373.52;;;58.28;;
55216;SDS011;41086;46.736;15.666;2022-11-15T03:30:56;616.08;;;82.43;;
55216;SDS011;41086;46.736;15.666;2022-11-15T03:36:30;653.40;;;82.55;;
55216;SDS011;41086;46.736;15.666;2022-11-15T03:42:16;551.08;;;72.82;;
55216;SDS011;41086;46.736;15.666;2022-11-15T03:48:09;467.73;;;69.07;;
55216;SDS011;41086;46.736;15.666;2022-11-15T03:50:58;468.40;;;70.70;;
55216;SDS011;41086;46.736;15.666;2022-11-15T03:53:44;469.38;;;65.97;;
55216;SDS011;41086;46.736;15.666;2022-11-15T03:56:30;318.23;;;57.05;;
55216;SDS011;41086;46.736;15.666;2022-11-15T03:59:15;270.42;;;53.00;;
55216;SDS011;41086;46.736;15.666;2022-11-15T04:02:01;344.35;;;58.67;;
55216;SDS011;41086;46.736;15.666;2022-11-15T04:04:46;481.48;;;66.95;;
55216;SDS011;41086;46.736;15.666;2022-11-15T04:07:31;332.65;;;60.30;;
55216;SDS011;41086;46.736;15.666;2022-11-15T04:10:17;322.58;;;58.45;;
55216;SDS011;41086;46.736;15.666;2022-11-15T04:13:03;634.65;;;88.45;;
55216;SDS011;41086;46.736;15.666;2022-11-15T04:15:48;381.73;;;60.28;;
55216;SDS011;41086;46.736;15.666;2022-11-15T04:18:34;417.75;;;64.28;;
55216;SDS011;41086;46.736;15.666;2022-11-15T04:21:19;373.27;;;64.88;;
55216;SDS011;41086;46.736;15.666;2022-11-15T04:24:22;431.80;;;64.70;;
55216;SDS011;41086;46.736;15.666;2022-11-15T04:27:08;399.73;;;60.53;;
55216;SDS011;41086;46.736;15.666;2022-11-15T04:29:53;455.10;;;63.05;;
55216;SDS011;41086;46.736;15.666;2022-11-15T04:32:38;292.90;;;49.22;;
55216;SDS011;41086;46.736;15.666;2022-11-15T04:35:24;475.85;;;72.43;;
55216;SDS011;41086;46.736;15.666;2022-11-15T04:38:10;329.80;;;57.85;;
55216;SDS011;41086;46.736;15.666;2022-11-15T04:40:55;809.88;;;226.07;;
55216;SDS011;41086;46.736;15.666;2022-11-15T04:43:41;336.48;;;64.55;;
55216;SDS011;41086;46.736;15.666;2022-11-15T04:46:26;299.85;;;53.83;;
55216;SDS011;41086;46.736;15.666;2022-11-15T04:49:12;409.13;;;61.20;;
55216;SDS011;41086;46.736;15.666;2022-11-15T04:51:57;362.33;;;59.25;;
55216;SDS011;41086;46.736;15.666;2022-11-15T04:54:43;264.83;;;50.35;;
55216;SDS011;41086;46.736;15.666;2022-11-15T04:57:29;346.48;;;53.95;;
55216;SDS011;41086;46.736;15.666;2022-11-15T05:00:15;364.38;;;56.63;;
55216;SDS011;41086;46.736;15.666;2022-11-15T05:03:02;471.05;;;67.10;;
55216;SDS011;41086;46.736;15.666;2022-11-15T05:06:06;188.43;;;42.60;;
55216;SDS011;41086;46.736;15.666;2022-11-15T05:08:52;369.23;;;61.22;;
55216;SDS011;41086;46.736;15.666;2022-11-15T05:11:37;393.60;;;61.30;;
55216;SDS011;41086;46.736;15.666;2022-11-15T05:14:23;466.73;;;63.85;;
55216;SDS011;41086;46.736;15.666;2022-11-15T05:17:08;343.98;;;55.05;;
55216;SDS011;41086;46.736;15.666;2022-11-15T05:19:53;549.00;;;78.30;;
55216;SDS011;41086;46.736;15.666;2022-11-15T05:22:39;381.70;;;56.17;;
55216;SDS011;41086;46.736;15.666;2022-11-15T05:25:25;267.70;;;47.55;;
55216;SDS011;41086;46.736;15.666;2022-11-15T05:28:10;417.05;;;132.57;;
55216;SDS011;41086;46.736;15.666;2022-11-15T05:31:06;365.23;;;127.35;;
55216;SDS011;41086;46.736;15.666;2022-11-15T05:33:53;415.65;;;107.00;;
55216;SDS011;41086;46.736;15.666;2022-11-15T05:36:42;490.35;;;71.95;;
55216;SDS011;41086;46.736;15.666;2022-11-15T05:39:32;303.65;;;51.53;;
55216;SDS011;41086;46.736;15.666;2022-11-15T05:42:17;432.67;;;61.92;;
55216;SDS011;41086;46.736;15.666;2022-11-15T05:45:05;434.35;;;63.17;;
55216;SDS011;41086;46.736;15.666;2022-11-15T05:47:53;268.38;;;49.20;;
55216;SDS011;41086;46.736;15.666;2022-11-15T05:50:43;332.73;;;55.80;;
55216;SDS011;41086;46.736;15.666;2022-11-15T05:53:31;243.60;;;46.90;;
55216;SDS011;41086;46.736;15.666;2022-11-15T05:56:18;525.88;;;74.72;;
55216;SDS011;41086;46.736;15.666;2022-11-15T05:59:03;348.98;;;54.47;;
55216;SDS011;41086;46.736;15.666;2022-11-15T06:01:50;302.73;;;52.38;;
55216;SDS011;41086;46.736;15.666;2022-11-15T06:04:36;454.23;;;68.07;;
55216;SDS011;41086;46.736;15.666;2022-11-15T06:07:21;235.90;;;49.83;;
55216;SDS011;41086;46.736;15.666;2022-11-15T06:10:07;287.08;;;53.13;;
55216;SDS011;41086;46.736;15.666;2022-11-15T06:12:59;334.73;;;53.85;;
55216;SDS011;41086;46.736;15.666;2022-11-15T06:15:47;320.92;;;52.58;;
55216;SDS011;41086;46.736;15.666;2022-11-15T06:18:33;334.95;;;56.38;;
55216;SDS011;41086;46.736;15.666;2022-11-15T06:21:19;264.23;;;51.45;;
55216;SDS011;41086;46.736;15.666;2022-11-15T06:24:04;228.25;;;47.65;;
55216;SDS011;41086;46.736;15.666;2022-11-15T06:26:50;333.38;;;57.63;;
55216;SDS011;41086;46.736;15.666;2022-11-15T06:29:35;392.67;;;65.15;;
55216;SDS011;41086;46.736;15.666;2022-11-15T06:32:20;468.95;;;67.72;;
55216;SDS011;41086;46.736;15.666;2022-11-15T06:35:06;340.02;;;55.17;;
55216;SDS011;41086;46.736;15.666;2022-11-15T06:37:51;370.98;;;56.60;;
55216;SDS011;41086;46.736;15.666;2022-11-15T06:40:37;417.65;;;62.92;;
55216;SDS011;41086;46.736;15.666;2022-11-15T06:43:23;274.65;;;49.28;;
55216;SDS011;41086;46.736;15.666;2022-11-15T06:46:08;177.82;;;44.50;;
55216;SDS011;41086;46.736;15.666;2022-11-15T06:48:54;139.55;;;38.85;;
55216;SDS011;41086;46.736;15.666;2022-11-15T06:51:39;97.18;;;34.17;;
55216;SDS011;41086;46.736;15.666;2022-11-15T06:54:24;99.45;;;30.83;;
55216;SDS011;41086;46.736;15.666;2022-11-15T06:57:09;103.05;;;35.03;;
55216;SDS011;41086;46.736;15.666;2022-11-15T06:59:55;116.35;;;33.97;;
55216;SDS011;41086;46.736;15.666;2022-11-15T07:02:40;121.38;;;37.55;;
55216;SDS011;41086;46.736;15.666;2022-11-15T07:05:26;110.63;;;36.50;;
55216;SDS011;41086;46.736;15.666;2022-11-15T07:08:11;137.10;;;40.65;;
55216;SDS011;41086;46.736;15.666;2022-11-15T07:11:01;122.20;;;35.53;;
55216;SDS011;41086;46.736;15.666;2022-11-15T07:13:47;119.80;;;35.72;;
55216;SDS011;41086;46.736;15.666;2022-11-15T07:16:33;129.73;;;35.00;;
55216;SDS011;41086;46.736;15.666;2022-11-15T07:19:18;114.78;;;36.92;;
55216;SDS011;41086;46.736;15.666;2022-11-15T07:22:04;108.38;;;37.50;;
55216;SDS011;41086;46.736;15.666;2022-11-15T07:24:49;130.75;;;38.20;;
55216;SDS011;41086;46.736;15.666;2022-11-15T07:27:34;209.75;;;53.67;;
55216;SDS011;41086;46.736;15.666;2022-11-15T07:30:20;126.32;;;44.92;;
55216;SDS011;41086;46.736;15.666;2022-11-15T07:33:06;134.88;;;41.75;;
55216;SDS011;41086;46.736;15.666;2022-11-15T07:35:52;116.63;;;40.55;;
55216;SDS011;41086;46.736;15.666;2022-11-15T07:38:38;105.85;;;36.80;;
55216;SDS011;41086;46.736;15.666;2022-11-15T07:41:27;114.75;;;38.92;;
55216;SDS011;41086;46.736;15.666;2022-11-15T07:44:12;151.38;;;43.28;;
55216;SDS011;41086;46.736;15.666;2022-11-15T07:46:57;155.50;;;40.92;;
55216;SDS011;41086;46.736;15.666;2022-11-15T07:49:43;126.93;;;41.10;;
55216;SDS011;41086;46.736;15.666;2022-11-15T07:52:28;190.85;;;44.20;;
55216;SDS011;41086;46.736;15.666;2022-11-15T07:55:13;137.00;;;46.63;;
55216;SDS011;41086;46.736;15.666;2022-11-15T08:00:48;156.40;;;40.42;;
55216;SDS011;41086;46.736;15.666;2022-11-15T08:03:33;163.27;;;36.55;;
55216;SDS011;41086;46.736;15.666;2022-11-15T08:06:19;165.73;;;39.15;;
55216;SDS011;41086;46.736;15.666;2022-11-15T08:09:04;141.38;;;36.45;;
55216;SDS011;41086;46.736;15.666;2022-11-15T08:11:50;125.43;;;37.17;;
55216;SDS011;41086;46.736;15.666;2022-11-15T08:14:39;126.97;;;37.47;;
55216;SDS011;41086;46.736;15.666;2022-11-15T08:17:28;154.02;;;38.70;;
55216;SDS011;41086;46.736;15.666;2022-11-15T08:20:17;101.10;;;33.50;;
55216;SDS011;41086;46.736;15.666;2022-11-15T08:23:04;100.97;;;35.13;;
55216;SDS011;41086;46.736;15.666;2022-11-15T08:25:50;92.47;;;32.92;;
55216;SDS011;41086;46.736;15.666;2022-11-15T08:28:38;118.88;;;31.83;;
55216;SDS011;41086;46.736;15.666;2022-11-15T08:31:23;218.35;;;50.80;;
55216;SDS011;41086;46.736;15.666;2022-11-15T08:34:09;95.40;;;34.67;;
55216;SDS011;41086;46.736;15.666;2022-11-15T08:36:54;114.03;;;35.28;;
55216;SDS011;41086;46.736;15.666;2022-11-15T08:39:39;126.40;;;35.17;;
55216;SDS011;41086;46.736;15.666;2022-11-15T08:42:25;193.73;;;38.50;;
55216;SDS011;41086;46.736;15.666;2022-11-15T08:45:11;104.45;;;32.78;;
55216;SDS011;41086;46.736;15.666;2022-11-15T08:48:00;119.15;;;34.80;;
55216;SDS011;41086;46.736;15.666;2022-11-15T08:50:46;86.32;;;32.72;;
55216;SDS011;41086;46.736;15.666;2022-11-15T08:53:33;91.10;;;34.67;;
55216;SDS011;41086;46.736;15.666;2022-11-15T08:56:18;178.15;;;39.50;;
55216;SDS011;41086;46.736;15.666;2022-11-15T08:59:04;106.80;;;34.42;;
55216;SDS011;41086;46.736;15.666;2022-11-15T09:01:49;223.35;;;42.67;;
55216;SDS011;41086;46.736;15.666;2022-11-15T09:04:34;228.57;;;41.90;;
55216;SDS011;41086;46.736;15.666;2022-11-15T09:07:20;98.80;;;35.03;;
55216;SDS011;41086;46.736;15.666;2022-11-15T09:10:05;100.22;;;33.72;;
55216;SDS011;41086;46.736;15.666;2022-11-15T09:12:51;92.63;;;32.33;;
55216;SDS011;41086;46.736;15.666;2022-11-15T09:15:36;134.75;;;36.30;;
55216;SDS011;41086;46.736;15.666;2022-11-15T09:18:21;192.40;;;38.45;;
55216;SDS011;41086;46.736;15.666;2022-11-15T09:21:07;158.75;;;40.28;;
55216;SDS011;41086;46.736;15.666;2022-11-15T09:23:57;107.80;;;35.05;;
55216;SDS011;41086;46.736;15.666;2022-11-15T09:26:45;104.40;;;35.72;;
55216;SDS011;41086;46.736;15.666;2022-11-15T09:29:31;134.93;;;40.05;;
55216;SDS011;41086;46.736;15.666;2022-11-15T09:32:16;116.65;;;35.85;;
55216;SDS011;41086;46.736;15.666;2022-11-15T09:35:01;171.77;;;40.90;;
55216;SDS011;41086;46.736;15.666;2022-11-15T09:37:47;91.75;;;34.67;;
55216;SDS011;41086;46.736;15.666;2022-11-15T09:40:40;96.95;;;34.90;;
55216;SDS011;41086;46.736;15.666;2022-11-15T09:49:15;105.72;;;33.63;;
55216;SDS011;41086;46.736;15.666;2022-11-15T09:52:07;98.60;;;35.33;;
55216;SDS011;41086;46.736;15.666;2022-11-15T09:54:37;87.57;;;34.88;;
55216;SDS011;41086;46.736;15.666;2022-11-15T10:00:33;96.85;;;35.28;;
55216;SDS011;41086;46.736;15.666;2022-11-15T10:03:26;74.70;;;31.08;;
55216;SDS011;41086;46.736;15.666;2022-11-15T10:05:59;93.07;;;33.42;;
55216;SDS011;41086;46.736;15.666;2022-11-15T10:11:09;83.03;;;33.55;;
55216;SDS011;41086;46.736;15.666;2022-11-15T10:13:59;94.10;;;33.20;;
55216;SDS011;41086;46.736;15.666;2022-11-15T10:19:35;84.45;;;32.72;;
55216;SDS011;41086;46.736;15.666;2022-11-15T10:25:18;84.00;;;31.67;;
55216;SDS011;41086;46.736;15.666;2022-11-15T10:27:51;75.35;;;31.98;;
55216;SDS011;41086;46.736;15.666;2022-11-15T10:30:21;75.75;;;30.17;;
55216;SDS011;41086;46.736;15.666;2022-11-15T10:35:22;75.35;;;29.50;;
55216;SDS011;41086;46.736;15.666;2022-11-15T10:38:08;63.35;;;27.42;;
55216;SDS011;41086;46.736;15.666;2022-11-15T10:40:41;74.10;;;29.52;;
55216;SDS011;41086;46.736;15.666;2022-11-15T10:43:13;67.70;;;28.65;;
55216;SDS011;41086;46.736;15.666;2022-11-15T10:45:42;66.28;;;29.05;;
55216;SDS011;41086;46.736;15.666;2022-11-15T10:50:43;58.75;;;26.10;;
55216;SDS011;41086;46.736;15.666;2022-11-15T10:53:14;65.13;;;27.88;;
55216;SDS011;41086;46.736;15.666;2022-11-15T10:56:05;57.28;;;26.30;;
55216;SDS011;41086;46.736;15.666;2022-11-15T10:58:38;73.43;;;26.55;;
55216;SDS011;41086;46.736;15.666;2022-11-15T11:01:18;63.20;;;27.10;;
55216;SDS011;41086;46.736;15.666;2022-11-15T11:04:00;53.97;;;23.42;;
55216;SDS011;41086;46.736;15.666;2022-11-15T11:06:29;59.42;;;24.50;;
55216;SDS011;41086;46.736;15.666;2022-11-15T11:09:21;56.30;;;25.70;;
55216;SDS011;41086;46.736;15.666;2022-11-15T11:11:59;61.85;;;25.88;;
55216;SDS011;41086;46.736;15.666;2022-11-15T11:19:30;68.80;;;29.00;;
55216;SDS011;41086;46.736;15.666;2022-11-15T11:22:09;61.33;;;26.17;;
55216;SDS011;41086;46.736;15.666;2022-11-15T11:25:11;65.55;;;28.33;;
55216;SDS011;41086;46.736;15.666;2022-11-15T11:39:02;69.93;;;28.38;;
55216;SDS011;41086;46.736;15.666;2022-11-15T11:44:40;65.78;;;27.95;;
55216;SDS011;41086;46.736;15.666;2022-11-15T11:47:36;72.47;;;29.15;;
55216;SDS011;41086;46.736;15.666;2022-11-15T11:50:20;78.38;;;30.75;;
55216;SDS011;41086;46.736;15.666;2022-11-15T11:53:00;80.38;;;30.48;;
55216;SDS011;41086;46.736;15.666;2022-11-15T11:58:17;88.07;;;34.60;;
55216;SDS011;41086;46.736;15.666;2022-11-15T12:03:42;87.47;;;34.60;;
55216;SDS011;41086;46.736;15.666;2022-11-15T12:06:23;86.88;;;34.42;;
55216;SDS011;41086;46.736;15.666;2022-11-15T12:08:53;90.95;;;33.92;;
55216;SDS011;41086;46.736;15.666;2022-11-15T12:14:17;98.18;;;34.55;;
55216;SDS011;41086;46.736;15.666;2022-11-15T12:16:56;92.18;;;33.30;;
55216;SDS011;41086;46.736;15.666;2022-11-15T12:19:24;86.72;;;31.77;;
55216;SDS011;41086;46.736;15.666;2022-11-15T12:24:33;86.40;;;32.42;;
55216;SDS011;41086;46.736;15.666;2022-11-15T12:27:15;80.72;;;31.10;;
55216;SDS011;41086;46.736;15.666;2022-11-15T12:29:58;75.70;;;28.65;;
55216;SDS011;41086;46.736;15.666;2022-11-15T12:32:36;80.80;;;32.00;;
55216;SDS011;41086;46.736;15.666;2022-11-15T12:35:20;75.38;;;30.63;;
55216;SDS011;41086;46.736;15.666;2022-11-15T12:37:51;69.78;;;29.33;;
55216;SDS011;41086;46.736;15.666;2022-11-15T12:40:29;74.45;;;28.35;;
55216;SDS011;41086;46.736;15.666;2022-11-15T12:42:59;74.82;;;30.88;;
55216;SDS011;41086;46.736;15.666;2022-11-15T12:45:42;127.65;;;56.67;;
55216;SDS011;41086;46.736;15.666;2022-11-15T12:53:26;89.15;;;32.63;;
55216;SDS011;41086;46.736;15.666;2022-11-15T12:58:41;93.38;;;32.88;;
55216;SDS011;41086;46.736;15.666;2022-11-15T13:01:09;79.20;;;30.58;;
55216;SDS011;41086;46.736;15.666;2022-11-15T13:04:07;129.43;;;58.53;;
55216;SDS011;41086;46.736;15.666;2022-11-15T13:06:51;87.70;;;31.30;;
55216;SDS011;41086;46.736;15.666;2022-11-15T13:12:09;81.88;;;31.88;;
55216;SDS011;41086;46.736;15.666;2022-11-15T13:14:57;86.53;;;32.53;;
55216;SDS011;41086;46.736;15.666;2022-11-15T13:20:02;101.57;;;35.63;;
55216;SDS011;41086;46.736;15.666;2022-11-15T13:22:51;97.00;;;33.47;;
55216;SDS011;41086;46.736;15.666;2022-11-15T13:28:46;107.72;;;34.97;;
55216;SDS011;41086;46.736;15.666;2022-11-15T13:31:29;117.93;;;35.38;;
55216;SDS011;41086;46.736;15.666;2022-11-15T13:34:49;116.22;;;36.60;;
55216;SDS011;41086;46.736;15.666;2022-11-15T13:39:48;115.32;;;37.42;;
55216;SDS011;41086;46.736;15.666;2022-11-15T13:42:16;123.00;;;38.25;;
55216;SDS011;41086;46.736;15.666;2022-11-15T13:44:54;124.68;;;37.50;;
55216;SDS011;41086;46.736;15.666;2022-11-15T13:47:24;131.82;;;38.95;;
55216;SDS011;41086;46.736;15.666;2022-11-15T13:49:53;124.78;;;37.92;;
55216;SDS011;41086;46.736;15.666;2022-11-15T13:52:22;127.70;;;40.28;;
55216;SDS011;41086;46.736;15.666;2022-11-15T13:55:05;134.82;;;39.10;;
55216;SDS011;41086;46.736;15.666;2022-11-15T14:00:21;125.53;;;39.22;;
55216;SDS011;41086;46.736;15.666;2022-11-15T14:02:53;127.50;;;36.85;;
55216;SDS011;41086;46.736;15.666;2022-11-15T14:05:22;125.40;;;38.45;;
55216;SDS011;41086;46.736;15.666;2022-11-15T14:07:57;118.40;;;34.95;;
55216;SDS011;41086;46.736;15.666;2022-11-15T14:10:34;117.47;;;36.78;;
55216;SDS011;41086;46.736;15.666;2022-11-15T14:13:28;168.38;;;41.50;;
55216;SDS011;41086;46.736;15.666;2022-11-15T14:16:14;124.65;;;38.75;;
55216;SDS011;41086;46.736;15.666;2022-11-15T14:18:47;131.02;;;40.33;;
55216;SDS011;41086;46.736;15.666;2022-11-15T14:21:15;117.45;;;36.03;;
55216;SDS011;41086;46.736;15.666;2022-11-15T14:26:30;145.43;;;38.58;;
55216;SDS011;41086;46.736;15.666;2022-11-15T14:31:54;207.15;;;44.08;;
55216;SDS011;41086;46.736;15.666;2022-11-15T14:34:38;163.82;;;40.28;;
55216;SDS011;41086;46.736;15.666;2022-11-15T14:37:07;155.20;;;39.85;;
55216;SDS011;41086;46.736;15.666;2022-11-15T14:39:42;160.95;;;39.53;;
55216;SDS011;41086;46.736;15.666;2022-11-15T14:42:09;178.73;;;40.05;;
55216;SDS011;41086;46.736;15.666;2022-11-15T14:44:36;190.30;;;43.97;;
55216;SDS011;41086;46.736;15.666;2022-11-15T14:47:07;157.48;;;40.78;;
55216;SDS011;41086;46.736;15.666;2022-11-15T14:49:34;146.32;;;38.15;;
55216;SDS011;41086;46.736;15.666;2022-11-15T14:52:01;160.48;;;40.53;;
55216;SDS011;41086;46.736;15.666;2022-11-15T14:54:27;143.02;;;38.80;;
55216;SDS011;41086;46.736;15.666;2022-11-15T14:56:54;159.68;;;43.05;;
55216;SDS011;41086;46.736;15.666;2022-11-15T14:59:21;167.40;;;41.20;;
55216;SDS011;41086;46.736;15.666;2022-11-15T15:01:47;162.85;;;40.33;;
55216;SDS011;41086;46.736;15.666;2022-11-15T15:04:14;156.35;;;43.33;;
55216;SDS011;41086;46.736;15.666;2022-11-15T15:06:41;154.63;;;38.97;;
55216;SDS011;41086;46.736;15.666;2022-11-15T15:09:08;191.63;;;43.45;;
55216;SDS011;41086;46.736;15.666;2022-11-15T15:11:34;221.38;;;45.63;;
55216;SDS011;41086;46.736;15.666;2022-11-15T15:14:01;154.02;;;40.63;;
55216;SDS011;41086;46.736;15.666;2022-11-15T15:16:28;205.95;;;40.65;;
55216;SDS011;41086;46.736;15.666;2022-11-15T15:18:55;173.43;;;43.00;;
55216;SDS011;41086;46.736;15.666;2022-11-15T15:24:01;169.68;;;43.40;;
55216;SDS011;41086;46.736;15.666;2022-11-15T15:26:29;151.27;;;41.85;;
55216;SDS011;41086;46.736;15.666;2022-11-15T15:28:59;129.05;;;39.33;;
55216;SDS011;41086;46.736;15.666;2022-11-15T15:31:26;133.65;;;38.90;;
55216;SDS011;41086;46.736;15.666;2022-11-15T15:33:53;200.70;;;42.67;;
55216;SDS011;41086;46.736;15.666;2022-11-15T15:36:20;196.23;;;44.13;;
55216;SDS011;41086;46.736;15.666;2022-11-15T15:38:46;147.18;;;40.60;;
55216;SDS011;41086;46.736;15.666;2022-11-15T15:41:14;123.07;;;38.50;;
55216;SDS011;41086;46.736;15.666;2022-11-15T15:43:42;154.02;;;46.53;;
55216;SDS011;41086;46.736;15.666;2022-11-15T15:46:11;147.35;;;38.95;;
55216;SDS011;41086;46.736;15.666;2022-11-15T15:48:40;145.38;;;39.88;;
55216;SDS011;41086;46.736;15.666;2022-11-15T15:51:07;136.25;;;39.58;;
55216;SDS011;41086;46.736;15.666;2022-11-15T15:53:44;176.57;;;42.80;;
55216;SDS011;41086;46.736;15.666;2022-11-15T15:56:11;173.93;;;41.13;;
55216;SDS011;41086;46.736;15.666;2022-11-15T15:58:42;166.25;;;55.80;;
55216;SDS011;41086;46.736;15.666;2022-11-15T16:01:13;200.38;;;43.25;;
55216;SDS011;41086;46.736;15.666;2022-11-15T16:03:44;175.98;;;44.42;;
55216;SDS011;41086;46.736;15.666;2022-11-15T16:06:25;171.85;;;41.50;;
55216;SDS011;41086;46.736;15.666;2022-11-15T16:08:59;165.40;;;39.78;;
55216;SDS011;41086;46.736;15.666;2022-11-15T16:11:44;118.38;;;36.72;;
55216;SDS011;41086;46.736;15.666;2022-11-15T16:14:12;106.95;;;35.55;;
55216;SDS011;41086;46.736;15.666;2022-11-15T16:16:39;117.15;;;38.67;;
55216;SDS011;41086;46.736;15.666;2022-11-15T16:19:07;119.13;;;37.63;;
55216;SDS011;41086;46.736;15.666;2022-11-15T16:21:37;125.88;;;38.05;;
55216;SDS011;41086;46.736;15.666;2022-11-15T16:24:04;119.00;;;36.03;;
55216;SDS011;41086;46.736;15.666;2022-11-15T16:26:30;96.82;;;34.75;;
55216;SDS011;41086;46.736;15.666;2022-11-15T16:29:01;114.28;;;35.42;;
55216;SDS011;41086;46.736;15.666;2022-11-15T16:31:27;122.75;;;37.08;;
55216;SDS011;41086;46.736;15.666;2022-11-15T16:33:54;119.43;;;37.72;;
55216;SDS011;41086;46.736;15.666;2022-11-15T16:36:25;128.43;;;36.42;;
55216;SDS011;41086;46.736;15.666;2022-11-15T16:38:56;113.03;;;34.65;;
55216;SDS011;41086;46.736;15.666;2022-11-15T16:41:24;112.88;;;36.95;;
55216;SDS011;41086;46.736;15.666;2022-11-15T16:48:44;140.25;;;38.25;;
55216;SDS011;41086;46.736;15.666;2022-11-15T16:51:11;138.68;;;38.10;;
55216;SDS011;41086;46.736;15.666;2022-11-15T16:53:38;130.93;;;35.88;;
55216;SDS011;41086;46.736;15.666;2022-11-15T16:58:56;145.38;;;37.35;;
55216;SDS011;41086;46.736;15.666;2022-11-15T17:01:25;139.95;;;37.28;;
55216;SDS011;41086;46.736;15.666;2022-11-15T17:03:54;121.00;;;36.53;;
55216;SDS011;41086;46.736;15.666;2022-11-15T17:06:21;130.25;;;37.67;;
55216;SDS011;41086;46.736;15.666;2022-11-15T17:08:48;186.43;;;43.92;;
55216;SDS011;41086;46.736;15.666;2022-11-15T17:11:19;109.65;;;36.25;;
55216;SDS011;41086;46.736;15.666;2022-11-15T17:13:47;116.82;;;36.25;;
55216;SDS011;41086;46.736;15.666;2022-11-15T17:16:15;116.18;;;37.00;;
55216;SDS011;41086;46.736;15.666;2022-11-15T17:18:43;114.18;;;38.70;;
55216;SDS011;41086;46.736;15.666;2022-11-15T17:21:15;98.18;;;35.38;;
55216;SDS011;41086;46.736;15.666;2022-11-15T17:23:43;94.50;;;34.67;;
55216;SDS011;41086;46.736;15.666;2022-11-15T17:28:58;114.13;;;35.25;;
55216;SDS011;41086;46.736;15.666;2022-11-15T17:31:26;107.68;;;34.47;;
55216;SDS011;41086;46.736;15.666;2022-11-15T17:33:56;91.85;;;34.95;;
55216;SDS011;41086;46.736;15.666;2022-11-15T17:36:22;97.75;;;34.47;;
55216;SDS011;41086;46.736;15.666;2022-11-15T17:38:49;105.53;;;35.05;;